Time;durP1;ratioP1;P1;durP2;ratioP2;P2;SDS_P1;SDS_P2;PMS_P1;PMS_P2;Temp;Humidity;BMP_temperature;BMP_pressure;BME280_temperature;BME280_humidity;BME280_pressure;Samples;Min_cycle;Max_cycle;Signal;HPM_P1;HPM_P2
2023/03/16 00:03:10;;;;;;;8.15;7.32;;;;;;;3.99;62.59;100696.56;10408533;28;20041;-65
2023/03/16 00:08:13;;;;;;;8.85;7.22;;;;;;;4.04;62.31;100693.75;10414038;28;20128;-66
2023/03/16 00:13:16;;;;;;;8.80;7.90;;;;;;;4.01;62.36;100705.28;10413722;28;20683;-67
2023/03/16 00:18:18;;;;;;;8.48;7.35;;;;;;;3.87;62.89;100687.47;10412851;28;20146;-63
2023/03/16 00:23:26;;;;;;;8.52;7.53;;;;;;;3.97;63.42;100694.97;10413683;28;20138;-69
2023/03/16 00:28:34;;;;;;;11.45;8.02;;;;;;;3.94;63.62;100692.47;10413543;28;20080;-68
2023/03/16 00:33:35;;;;;;;8.95;8.05;;;;;;;3.83;64.31;100685.91;10390230;28;20681;-67
2023/03/16 00:38:44;;;;;;;9.93;8.85;;;;;;;3.87;64.20;100676.06;10410051;28;20761;-70
2023/03/16 00:43:47;;;;;;;10.45;8.05;;;;;;;3.75;64.84;100666.94;10411494;28;20048;-68
2023/03/16 00:48:50;;;;;;;8.60;7.70;;;;;;;3.73;65.62;100674.06;10408698;28;20049;-67
2023/03/16 00:53:51;;;;;;;9.38;8.13;;;;;;;3.65;66.24;100666.53;10386945;28;21121;-71
2023/03/16 00:58:56;;;;;;;9.32;8.13;;;;;;;3.56;66.96;100658.19;10411202;28;20144;-68
2023/03/16 01:04:01;;;;;;;8.60;7.57;;;;;;;3.57;67.11;100673.91;10391184;28;20570;-70
2023/03/16 01:09:04;;;;;;;9.70;7.80;;;;;;;3.52;67.75;100668.00;10412146;28;20197;-69
2023/03/16 01:14:05;;;;;;;12.82;9.43;;;;;;;3.54;67.45;100659.13;10411915;28;20057;-68
2023/03/16 01:19:07;;;;;;;10.55;8.77;;;;;;;3.49;67.70;100671.63;10416061;28;20068;-66
2023/03/16 01:24:09;;;;;;;10.82;8.00;;;;;;;3.50;67.91;100678.59;10416355;28;24948;-70
2023/03/16 01:29:11;;;;;;;7.93;7.15;;;;;;;3.50;67.88;100668.06;10414966;28;20044;-67
2023/03/16 01:34:16;;;;;;;9.23;8.20;;;;;;;3.53;67.78;100661.81;10415257;28;20745;-69
2023/03/16 01:39:18;;;;;;;11.27;8.35;;;;;;;3.56;67.68;100663.44;10393031;28;20094;-68
2023/03/16 01:44:29;;;;;;;9.00;8.10;;;;;;;3.61;68.13;100656.22;10393316;28;20240;-72
2023/03/16 01:49:35;;;;;;;9.88;8.18;;;;;;;3.46;68.45;100655.97;10394120;28;20094;-66
2023/03/16 01:54:43;;;;;;;10.05;8.73;;;;;;;3.44;68.13;100647.28;10408620;28;20080;-67
2023/03/16 02:00:08;;;;;;;8.68;7.68;;;;;;;3.34;68.62;100641.56;10409695;28;20091;-68
2023/03/16 02:05:21;;;;;;;10.68;8.30;;;;;;;3.30;68.81;100631.25;10408894;28;20822;-70
2023/03/16 02:10:26;;;;;;;8.43;7.47;;;;;;;3.33;68.82;100631.97;10406405;28;20053;-69
2023/03/16 02:15:28;;;;;;;10.75;7.97;;;;;;;3.29;68.88;100637.44;10405588;28;20507;-68
2023/03/16 02:20:49;;;;;;;9.95;7.95;;;;;;;3.28;68.96;100635.72;10407827;28;20049;-68
2023/03/16 02:25:59;;;;;;;9.75;7.53;;;;;;;3.20;69.23;100636.06;10403409;28;20053;-68
2023/03/16 02:31:01;;;;;;;8.85;7.95;;;;;;;3.20;69.45;100636.06;10408725;28;20130;-67
2023/03/16 02:36:02;;;;;;;8.48;7.40;;;;;;;3.11;69.75;100615.44;10406755;28;20110;-69
2023/03/16 02:41:14;;;;;;;8.52;7.28;;;;;;;3.04;70.22;100612.19;10407719;28;20077;-69
2023/03/16 02:46:16;;;;;;;7.68;6.95;;;;;;;3.01;70.10;100596.56;10389484;28;20052;-69
2023/03/16 02:51:18;;;;;;;9.88;8.48;;;;;;;3.00;70.21;100590.44;10398581;28;20111;-68
2023/03/16 02:56:21;;;;;;;8.07;7.25;;;;;;;2.94;70.74;100589.84;10388995;28;20056;-68
2023/03/16 03:01:23;;;;;;;7.70;6.68;;;;;;;2.95;70.94;100591.56;10408145;28;20098;-67
2023/03/16 03:06:24;;;;;;;9.00;7.13;;;;;;;2.95;70.21;100586.31;10406822;28;20068;-67
2023/03/16 03:11:25;;;;;;;7.03;5.75;;;;;;;2.92;70.07;100575.91;10407641;28;20057;-69
2023/03/16 03:16:27;;;;;;;8.35;7.15;;;;;;;2.90;70.05;100568.09;10387665;28;20130;-67
2023/03/16 03:21:28;;;;;;;12.55;8.35;;;;;;;2.94;70.16;100580.19;10409165;28;20056;-74
2023/03/16 03:26:30;;;;;;;11.95;6.95;;;;;;;2.88;70.13;100579.59;10408211;28;20120;-67
2023/03/16 03:31:31;;;;;;;9.45;7.30;;;;;;;2.85;70.04;100579.72;10407617;28;20446;-71
2023/03/16 03:36:34;;;;;;;9.70;6.80;;;;;;;2.78;70.17;100579.16;10407759;28;20045;-69
2023/03/16 03:41:35;;;;;;;9.20;7.40;;;;;;;2.73;70.29;100581.97;10411995;28;20459;-69
2023/03/16 03:46:36;;;;;;;8.70;7.28;;;;;;;2.73;70.60;100583.72;10413434;28;20048;-68
2023/03/16 03:51:39;;;;;;;8.50;7.43;;;;;;;2.65;70.66;100589.31;10402651;28;20249;-70
2023/03/16 03:56:41;;;;;;;7.03;6.40;;;;;;;2.59;70.79;100573.81;10412977;28;20044;-68
2023/03/16 04:01:42;;;;;;;8.38;6.85;;;;;;;2.59;70.88;100589.59;10414118;28;20049;-67
2023/03/16 04:06:45;;;;;;;9.27;6.45;;;;;;;2.57;70.98;100594.06;10387498;28;20053;-69
2023/03/16 04:11:47;;;;;;;9.55;7.35;;;;;;;2.55;70.86;100573.09;10393023;28;20143;-68
2023/03/16 04:16:48;;;;;;;9.52;6.65;;;;;;;2.54;70.75;100570.50;10410984;28;20203;-69
2023/03/16 04:21:50;;;;;;;9.05;7.40;;;;;;;2.53;70.87;100581.97;10412083;28;20107;-68
2023/03/16 04:26:53;;;;;;;8.00;6.15;;;;;;;2.57;70.85;100566.00;10410852;28;20055;-68
2023/03/16 04:31:54;;;;;;;8.35;6.30;;;;;;;2.58;70.82;100562.47;10401200;28;20059;-67
2023/03/16 04:36:55;;;;;;;6.60;5.88;;;;;;;2.53;71.08;100568.81;10411483;28;20064;-69
2023/03/16 04:41:57;;;;;;;6.65;5.72;;;;;;;2.51;70.73;100550.50;10408990;28;20096;-67
2023/03/16 04:46:59;;;;;;;9.10;6.72;;;;;;;2.44;71.29;100539.38;10411057;28;20048;-69
2023/03/16 04:52:01;;;;;;;8.63;6.72;;;;;;;2.44;71.43;100551.66;10407040;28;20511;-68
2023/03/16 04:57:02;;;;;;;7.72;6.63;;;;;;;2.45;71.63;100553.38;10393834;28;20044;-69
2023/03/16 05:02:04;;;;;;;9.32;6.57;;;;;;;2.41;71.65;100552.63;10408920;28;20072;-66
2023/03/16 05:07:05;;;;;;;8.20;6.93;;;;;;;2.42;71.41;100556.97;10410152;28;20059;-68
2023/03/16 05:12:07;;;;;;;8.15;6.38;;;;;;;2.40;71.50;100548.31;10393232;28;20056;-68
2023/03/16 05:17:08;;;;;;;8.82;6.65;;;;;;;2.43;71.48;100558.69;10408089;28;20060;-67
2023/03/16 05:22:10;;;;;;;11.27;6.60;;;;;;;2.39;71.89;100545.75;10408890;28;20496;-68
2023/03/16 05:27:11;;;;;;;8.07;6.00;;;;;;;2.44;71.87;100551.66;10409091;28;20405;-69
2023/03/16 05:32:12;;;;;;;7.60;6.70;;;;;;;2.45;71.65;100550.75;10389210;28;20146;-68
2023/03/16 05:37:14;;;;;;;8.45;7.10;;;;;;;2.44;71.73;100557.75;10408910;28;20049;-68
2023/03/16 05:42:15;;;;;;;8.60;7.25;;;;;;;2.50;71.72;100558.44;10399019;28;20126;-66
2023/03/16 05:47:17;;;;;;;8.52;6.88;;;;;;;2.46;71.71;100547.19;10396310;28;20254;-68
2023/03/16 05:52:18;;;;;;;7.15;6.40;;;;;;;2.45;71.85;100541.09;10397436;28;20052;-68
2023/03/16 05:57:19;;;;;;;8.27;7.47;;;;;;;2.59;71.73;100547.53;10398289;28;20052;-68
2023/03/16 06:02:21;;;;;;;8.20;7.10;;;;;;;2.59;71.90;100542.28;10379542;28;20520;-68
2023/03/16 06:07:22;;;;;;;10.00;7.03;;;;;;;2.64;71.90;100529.78;10423387;28;20080;-70
2023/03/16 06:12:24;;;;;;;10.65;7.45;;;;;;;2.60;72.33;100522.97;10447293;28;20879;-71
2023/03/16 06:17:26;;;;;;;9.18;6.80;;;;;;;2.73;71.86;100531.16;10425597;28;20688;-71
2023/03/16 06:22:29;;;;;;;7.95;7.00;;;;;;;2.80;71.60;100540.50;10427245;28;20423;-67
2023/03/16 06:27:30;;;;;;;9.20;7.65;;;;;;;2.86;71.59;100544.63;10398725;28;20063;-67
2023/03/16 06:32:31;;;;;;;10.98;8.13;;;;;;;3.07;71.79;100542.84;10433633;28;21433;-72
2023/03/16 06:37:33;;;;;;;10.02;7.90;;;;;;;3.24;70.59;100540.28;10416263;28;20143;-70
2023/03/16 06:42:34;;;;;;;9.38;7.60;;;;;;;3.37;70.31;100551.09;10400394;28;20063;-68
2023/03/16 06:47:36;;;;;;;10.30;8.60;;;;;;;3.46;69.67;100545.41;10363084;28;20104;-71
2023/03/16 06:52:38;;;;;;;10.95;8.00;;;;;;;3.58;69.63;100532.63;10392133;28;20554;-70
2023/03/16 06:57:40;;;;;;;10.88;7.82;;;;;;;3.88;68.79;100560.13;10407464;28;20123;-68
2023/03/16 07:02:42;;;;;;;9.05;7.25;;;;;;;4.08;68.20;100558.31;10403189;28;20274;-69
2023/03/16 07:07:46;;;;;;;9.98;8.50;;;;;;;4.22;68.07;100533.94;10386019;28;20079;-71
2023/03/16 07:12:49;;;;;;;8.45;7.65;;;;;;;4.54;66.95;100545.47;10394994;28;20591;-69
2023/03/16 07:17:51;;;;;;;9.73;8.10;;;;;;;4.75;66.55;100547.97;10417227;28;20348;-68
2023/03/16 07:22:52;;;;;;;9.98;8.43;;;;;;;4.78;66.58;100558.34;10403791;28;20521;-68
2023/03/16 07:27:54;;;;;;;10.23;8.65;;;;;;;4.81;65.58;100546.81;10407945;28;20055;-69
2023/03/16 07:32:55;;;;;;;9.00;7.93;;;;;;;5.06;65.88;100559.53;10391331;28;20476;-68
2023/03/16 07:37:57;;;;;;;9.05;8.15;;;;;;;5.26;65.34;100554.06;10408140;28;20061;-68
2023/03/16 07:42:59;;;;;;;11.15;8.18;;;;;;;5.48;64.13;100564.34;10383141;28;20051;-69
2023/03/16 07:48:01;;;;;;;9.23;7.93;;;;;;;5.60;63.77;100552.25;10404485;28;20376;-67
2023/03/16 07:53:04;;;;;;;11.88;8.27;;;;;;;5.84;63.17;100559.75;10401938;28;20064;-67
2023/03/16 07:58:05;;;;;;;10.00;8.85;;;;;;;5.99;62.65;100556.28;10404172;28;20060;-69
2023/03/16 08:03:07;;;;;;;10.48;8.43;;;;;;;6.13;62.28;100549.34;10404240;28;20575;-69
2023/03/16 08:08:08;;;;;;;8.02;6.88;;;;;;;6.41;61.67;100547.75;10405564;28;20053;-69
2023/03/16 08:13:10;;;;;;;6.88;6.18;;;;;;;6.55;59.84;100550.44;10399939;28;20057;-68
2023/03/16 08:18:11;;;;;;;6.78;6.18;;;;;;;6.65;59.71;100546.31;10398490;28;20484;-69
2023/03/16 08:23:14;;;;;;;7.43;6.72;;;;;;;6.72;59.68;100542.38;10402462;28;20547;-71
2023/03/16 08:28:16;;;;;;;8.18;7.35;;;;;;;6.86;59.11;100548.59;10400883;28;20061;-70
2023/03/16 08:33:19;;;;;;;7.82;6.22;;;;;;;7.05;58.51;100525.38;10401817;28;20053;-70
2023/03/16 08:38:24;;;;;;;7.18;6.38;;;;;;;7.27;58.17;100526.69;10398709;28;20060;-69
2023/03/16 08:43:25;;;;;;;8.70;6.78;;;;;;;7.41;57.25;100517.88;10377987;28;20068;-68
2023/03/16 08:48:27;;;;;;;8.52;7.28;;;;;;;7.70;56.78;100526.66;10398830;28;20139;-69
2023/03/16 08:53:29;;;;;;;8.02;7.22;;;;;;;7.81;56.12;100522.41;10380230;28;20080;-71
2023/03/16 08:58:31;;;;;;;7.88;6.88;;;;;;;8.18;55.33;100520.03;10398817;28;20044;-67
2023/03/16 09:03:34;;;;;;;7.70;7.03;;;;;;;8.40;54.49;100512.34;10400008;28;20486;-72
2023/03/16 09:08:37;;;;;;;7.63;6.40;;;;;;;8.52;53.36;100485.97;10401225;28;22421;-73
2023/03/16 09:13:40;;;;;;;6.93;6.22;;;;;;;8.91;53.35;100505.41;10397875;28;20057;-69
2023/03/16 09:18:42;;;;;;;6.65;6.03;;;;;;;9.30;52.92;100511.53;10393279;28;20498;-70
2023/03/16 09:23:44;;;;;;;7.28;6.57;;;;;;;9.59;50.98;100512.09;10398327;28;20536;-68
2023/03/16 09:28:45;;;;;;;8.15;7.25;;;;;;;9.96;50.41;100501.44;10400869;28;20223;-69
2023/03/16 09:33:47;;;;;;;7.10;6.40;;;;;;;10.26;48.91;100497.44;10401102;28;20053;-69
2023/03/16 09:38:49;;;;;;;7.63;6.90;;;;;;;10.76;48.71;100486.59;10398512;28;20128;-69
2023/03/16 09:44:18;;;;;;;7.00;5.78;;;;;;;11.37;46.36;100474.75;10398244;28;20562;-68
2023/03/16 09:49:24;;;;;;;6.65;6.05;;;;;;;11.17;46.70;100474.50;10405730;28;20049;-71
2023/03/16 09:54:32;;;;;;;6.13;5.50;;;;;;;11.18;46.23;100478.00;10385086;28;20144;-69
2023/03/16 09:59:33;;;;;;;7.13;6.43;;;;;;;11.23;46.60;100471.34;10403910;28;20348;-71
2023/03/16 10:04:49;;;;;;;6.65;6.05;;;;;;;11.59;44.99;100473.81;10404989;28;20475;-70
2023/03/16 10:09:57;;;;;;;6.70;5.47;;;;;;;12.39;44.13;100472.59;10401028;28;20579;-69
2023/03/16 10:15:22;;;;;;;6.80;6.20;;;;;;;12.81;43.07;100471.72;10406460;28;20044;-71
2023/03/16 10:20:27;;;;;;;5.97;5.50;;;;;;;13.72;40.93;100477.09;10385229;28;20699;-69
2023/03/16 10:25:42;;;;;;;5.00;4.50;;;;;;;14.74;38.29;100471.31;10418774;28;22405;-73
2023/03/16 10:30:45;;;;;;;6.03;5.38;;;;;;;14.50;38.41;100464.56;10415138;28;20072;-70
2023/03/16 10:35:58;;;;;;;6.35;5.75;;;;;;;14.11;39.53;100466.44;10405279;28;20055;-69
2023/03/16 10:41:00;;;;;;;5.97;4.43;;;;;;;14.22;39.13;100460.94;10402137;28;20155;-69
2023/03/16 10:46:01;;;;;;;4.32;4.03;;;;;;;14.10;39.33;100464.75;10397562;28;20540;-69
2023/03/16 10:51:10;;;;;;;5.45;4.95;;;;;;;13.66;40.59;100451.78;10403798;28;20051;-73
2023/03/16 10:56:19;;;;;;;9.30;6.13;;;;;;;15.48;36.87;100447.28;10409350;28;20099;-70
2023/03/16 11:01:27;;;;;;;5.80;5.30;;;;;;;18.15;32.35;100435.88;10415831;28;20438;-70
2023/03/16 11:06:32;;;;;;;5.53;5.03;;;;;;;20.03;29.75;100438.94;10403755;28;20048;-70
2023/03/16 11:11:34;;;;;;;5.47;5.07;;;;;;;20.06;29.73;100435.84;10405549;28;20098;-69
2023/03/16 11:16:45;;;;;;;5.47;4.97;;;;;;;20.87;28.78;100442.53;10400003;28;20212;-69
2023/03/16 11:22:16;;;;;;;5.20;4.70;;;;;;;22.40;25.74;100424.47;10399766;28;20139;-69
2023/03/16 11:27:29;;;;;;;4.88;4.47;;;;;;;24.56;23.51;100397.75;10397693;28;20048;-69
2023/03/16 11:32:39;;;;;;;5.53;4.68;;;;;;;24.85;23.19;100401.91;10401608;28;25282;-71
2023/03/16 11:38:09;;;;;;;5.10;4.65;;;;;;;25.76;21.72;100398.13;10381081;28;20067;-69
2023/03/16 11:43:24;;;;;;;4.38;3.97;;;;;;;24.47;22.94;100388.97;10404896;28;20075;-69
2023/03/16 11:48:35;;;;;;;5.10;3.95;;;;;;;23.94;23.55;100389.84;10408746;28;20372;-72
2023/03/16 11:53:51;;;;;;;5.00;4.60;;;;;;;23.42;24.27;100386.81;10407448;28;20045;-70
2023/03/16 11:59:17;;;;;;;4.80;4.40;;;;;;;22.73;24.69;100373.16;10409822;28;20421;-69
2023/03/16 12:04:37;;;;;;;5.30;4.25;;;;;;;23.19;24.53;100360.00;10399931;28;20661;-71
2023/03/16 12:09:58;;;;;;;4.18;3.80;;;;;;;21.94;26.14;100357.16;10417542;28;20351;-71
2023/03/16 12:15:18;;;;;;;4.65;4.35;;;;;;;19.52;29.71;100353.03;10418035;28;20049;-72
2023/03/16 12:20:25;;;;;;;5.68;5.18;;;;;;;18.38;31.38;100364.13;10414806;28;20566;-72
2023/03/16 12:25:33;;;;;;;4.70;4.28;;;;;;;17.14;33.10;100351.59;10416102;28;20043;-72
2023/03/16 12:30:38;;;;;;;5.40;4.90;;;;;;;16.77;33.69;100347.44;10398281;28;20539;-70
2023/03/16 12:35:48;;;;;;;6.07;5.57;;;;;;;16.65;34.44;100344.19;10386636;28;20056;-68
2023/03/16 12:40:59;;;;;;;6.93;5.10;;;;;;;17.35;33.78;100328.78;10414495;28;20056;-71
2023/03/16 12:46:15;;;;;;;5.85;4.35;;;;;;;17.73;33.11;100321.06;10391070;28;20099;-69
2023/03/16 12:51:16;;;;;;;5.10;4.70;;;;;;;17.37;33.70;100326.78;10410582;28;20236;-72
2023/03/16 12:56:29;;;;;;;5.88;5.38;;;;;;;16.92;34.38;100318.97;10407095;28;20075;-69
2023/03/16 13:01:40;;;;;;;5.82;5.32;;;;;;;20.86;28.96;100300.22;10409407;28;20056;-70
2023/03/16 13:06:50;;;;;;;5.00;4.50;;;;;;;25.27;24.02;100285.25;10408388;28;20419;-71
2023/03/16 13:11:52;;;;;;;5.80;4.90;;;;;;;22.57;26.57;100275.81;10405250;28;20063;-71
2023/03/16 13:17:05;;;;;;;5.65;5.05;;;;;;;18.77;31.05;100283.47;10417358;28;21010;-71
2023/03/16 13:22:29;;;;;;;6.38;5.78;;;;;;;18.00;32.61;100277.66;10406220;28;20068;-69
2023/03/16 13:27:33;;;;;;;5.72;5.22;;;;;;;17.85;33.45;100264.03;10409675;28;20063;-71
2023/03/16 13:32:35;;;;;;;5.35;4.85;;;;;;;18.15;33.05;100253.56;10408608;28;20091;-71
2023/03/16 13:37:39;;;;;;;5.88;5.28;;;;;;;18.75;32.08;100253.13;10402228;28;20175;-71
2023/03/16 13:42:46;;;;;;;5.32;4.82;;;;;;;20.59;29.75;100256.56;10407346;28;20132;-70
2023/03/16 13:47:49;;;;;;;5.15;4.75;;;;;;;21.84;27.92;100254.50;10404484;28;20056;-73
2023/03/16 13:53:00;;;;;;;5.30;4.80;;;;;;;21.67;27.47;100237.72;10410299;28;20487;-72
2023/03/16 13:58:04;;;;;;;4.30;3.90;;;;;;;19.61;30.49;100246.63;10405477;28;20514;-73
2023/03/16 14:03:16;;;;;;;5.10;4.30;;;;;;;18.88;31.97;100245.34;10384441;28;20559;-70
2023/03/16 14:08:22;;;;;;;5.97;4.38;;;;;;;18.68;31.80;100231.44;10406067;28;20048;-69
2023/03/16 14:13:26;;;;;;;4.55;4.15;;;;;;;17.85;33.44;100220.13;10381695;28;20052;-69
2023/03/16 14:18:38;;;;;;;5.03;4.55;;;;;;;16.87;34.90;100220.97;10401243;28;20052;-69
2023/03/16 14:23:43;;;;;;;156.25;28.25;;;;;;;16.09;36.67;100214.81;10400755;28;21008;-70
2023/03/16 14:29:05;;;;;;;5.70;4.68;;;;;;;15.44;37.00;100199.13;10398546;28;20252;-74
2023/03/16 14:34:34;;;;;;;4.05;3.72;;;;;;;15.00;38.25;100195.41;10402483;28;20128;-71
2023/03/16 14:39:36;;;;;;;4.75;4.35;;;;;;;14.76;39.10;100193.34;10394717;28;20576;-70
2023/03/16 14:44:37;;;;;;;5.20;4.28;;;;;;;14.46;39.42;100187.31;10392839;28;20109;-71
2023/03/16 14:49:39;;;;;;;4.80;4.13;;;;;;;14.19;40.02;100192.69;10371256;28;20415;-70
2023/03/16 14:54:43;;;;;;;4.57;4.15;;;;;;;13.96;40.63;100175.19;10373911;28;20086;-70
2023/03/16 14:59:45;;;;;;;4.63;4.22;;;;;;;13.95;40.69;100168.13;10390523;28;20049;-71
2023/03/16 15:04:47;;;;;;;5.90;4.18;;;;;;;13.79;40.88;100158.03;10390973;28;20041;-69
2023/03/16 15:09:51;;;;;;;5.47;3.67;;;;;;;13.77;41.08;100156.53;10395739;28;20455;-70
2023/03/16 15:20:18;;;;;;;3.83;3.45;;;;;;;13.64;41.21;100156.00;10396506;28;20490;-72
2023/03/16 15:25:39;;;;;;;4.90;3.75;;;;;;;13.40;41.22;100160.84;10395790;28;20124;-70
2023/03/16 15:30:43;;;;;;;4.22;3.40;;;;;;;13.17;41.19;100135.41;10389200;28;20048;-70
2023/03/16 15:35:46;;;;;;;6.10;3.55;;;;;;;13.10;41.72;100135.13;10379506;28;20041;-71
2023/03/16 15:40:50;;;;;;;5.93;4.43;;;;;;;12.97;42.19;100130.09;10384270;28;20041;-70
2023/03/16 15:45:52;;;;;;;4.22;3.35;;;;;;;12.94;42.56;100129.50;10400672;28;20053;-69
2023/03/16 15:51:23;;;;;;;6.10;3.55;;;;;;;12.89;42.40;100127.25;10394793;28;20059;-69
2023/03/16 15:56:29;;;;;;;4.80;4.05;;;;;;;12.70;42.95;100134.31;10406538;28;20061;-69
2023/03/16 16:01:44;;;;;;;4.25;3.28;;;;;;;12.53;43.24;100125.16;10398922;28;20064;-68
2023/03/16 16:06:48;;;;;;;4.00;2.60;;;;;;;12.52;43.13;100130.63;10397885;28;20198;-71
2023/03/16 16:11:50;;;;;;;3.03;2.50;;;;;;;12.35;43.54;100124.97;10377399;28;20171;-69
2023/03/16 16:16:52;;;;;;;2.67;2.47;;;;;;;12.20;43.75;100115.69;10399675;28;20053;-69
2023/03/16 16:21:54;;;;;;;3.42;2.65;;;;;;;12.19;44.06;100114.88;10399574;28;20527;-69
2023/03/16 16:26:56;;;;;;;6.30;2.90;;;;;;;12.13;44.19;100106.53;10403578;28;20052;-71
2023/03/16 16:31:57;;;;;;;4.53;2.65;;;;;;;12.02;44.57;100108.38;10391868;28;20056;-70
2023/03/16 16:36:59;;;;;;;3.30;3.00;;;;;;;11.94;44.85;100102.84;10407197;28;20656;-72
2023/03/16 16:42:00;;;;;;;2.25;2.05;;;;;;;11.86;44.85;100108.00;10403104;28;20073;-70
2023/03/16 16:47:02;;;;;;;3.38;2.35;;;;;;;11.71;45.19;100109.34;10398757;28;20339;-71
2023/03/16 16:52:05;;;;;;;2.97;2.40;;;;;;;11.55;45.48;100099.19;10394459;28;20044;-71
2023/03/16 16:57:14;;;;;;;3.30;2.30;;;;;;;11.53;46.29;100102.00;10405579;28;20093;-70
2023/03/16 17:02:27;;;;;;;3.20;2.53;;;;;;;11.42;46.41;100099.41;10400928;28;20040;-71
2023/03/16 17:07:28;;;;;;;4.95;3.17;;;;;;;11.38;46.85;100104.16;10383287;28;20538;-69
2023/03/16 17:12:29;;;;;;;6.03;3.17;;;;;;;11.18;47.28;100097.84;10404503;28;20141;-70
2023/03/16 17:17:31;;;;;;;4.75;2.50;;;;;;;11.12;47.54;100093.91;10380148;28;20052;-70
2023/03/16 17:22:33;;;;;;;5.45;3.05;;;;;;;11.01;48.09;100098.47;10396154;28;20064;-68
2023/03/16 17:27:35;;;;;;;5.65;3.25;;;;;;;10.87;48.55;100092.50;10402400;28;20097;-69
2023/03/16 17:32:36;;;;;;;3.33;2.40;;;;;;;10.77;48.67;100089.75;10402878;28;20053;-68
2023/03/16 17:37:37;;;;;;;4.15;2.67;;;;;;;10.74;48.83;100094.50;10401789;28;20064;-73
2023/03/16 17:42:40;;;;;;;4.15;2.42;;;;;;;10.59;48.99;100073.50;10422099;28;20055;-71
2023/03/16 17:47:41;;;;;;;5.82;2.67;;;;;;;10.61;49.69;100097.31;10425191;28;20121;-72
2023/03/16 17:52:43;;;;;;;4.80;2.50;;;;;;;10.55;49.52;100089.84;10410591;28;20149;-71
2023/03/16 17:57:47;;;;;;;4.45;2.58;;;;;;;10.48;49.81;100086.88;10399228;28;20074;-71
2023/03/16 18:02:52;;;;;;;4.93;2.70;;;;;;;10.47;49.88;100087.00;10390101;28;20052;-71
2023/03/16 18:07:57;;;;;;;4.63;2.53;;;;;;;10.40;49.88;100087.50;10386850;28;20060;-71
2023/03/16 18:13:05;;;;;;;3.30;2.40;;;;;;;10.34;50.13;100082.66;10391490;28;20132;-70
2023/03/16 18:18:12;;;;;;;3.58;2.83;;;;;;;10.31;50.03;100077.56;10418191;28;20151;-70
2023/03/16 18:23:20;;;;;;;3.10;2.63;;;;;;;10.19;50.15;100065.28;10426821;28;20459;-71
2023/03/16 18:28:22;;;;;;;3.83;2.92;;;;;;;10.11;50.39;100067.72;10408269;28;20400;-69
2023/03/16 18:33:58;;;;;;;4.03;2.60;;;;;;;10.18;50.70;100080.41;10407691;28;20057;-69
2023/03/16 18:39:02;;;;;;;3.35;2.85;;;;;;;10.18;51.50;100076.91;10384195;28;20052;-70
2023/03/16 18:44:17;;;;;;;3.28;2.88;;;;;;;10.25;51.50;100078.94;10412913;28;20048;-70
2023/03/16 18:49:29;;;;;;;5.18;3.20;;;;;;;10.29;50.33;100084.00;10410935;28;20059;-72
2023/03/16 18:54:34;;;;;;;3.55;3.17;;;;;;;10.20;50.39;100081.09;10406186;28;20502;-70
2023/03/16 18:59:35;;;;;;;8.65;4.63;;;;;;;10.09;50.06;100073.16;10407744;28;20052;-71
2023/03/16 19:04:37;;;;;;;4.18;3.20;;;;;;;10.07;50.43;100083.06;10407548;28;20131;-69
2023/03/16 19:09:38;;;;;;;5.47;3.65;;;;;;;9.87;50.26;100053.63;10396262;28;20055;-70
2023/03/16 19:14:40;;;;;;;5.30;3.90;;;;;;;9.89;49.94;100078.28;10411907;28;20057;-69
2023/03/16 19:19:41;;;;;;;4.47;3.60;;;;;;;9.87;49.90;100074.06;10410743;28;20053;-70
2023/03/16 19:24:54;;;;;;;4.40;3.60;;;;;;;9.84;50.22;100077.78;10413915;28;20145;-71
2023/03/16 19:29:56;;;;;;;4.05;3.28;;;;;;;9.76;50.16;100077.59;10413875;28;20064;-70
2023/03/16 19:34:58;;;;;;;4.15;3.22;;;;;;;9.78;50.33;100070.31;10421034;28;20935;-70
2023/03/16 19:40:00;;;;;;;4.97;4.15;;;;;;;9.70;50.03;100068.28;10409069;28;20657;-72
2023/03/16 19:45:03;;;;;;;4.55;3.40;;;;;;;9.63;50.28;100060.91;10409534;28;20060;-71
2023/03/16 19:50:17;;;;;;;3.40;3.10;;;;;;;9.62;50.53;100062.72;10415512;28;20057;-70
2023/03/16 19:55:21;;;;;;;5.60;3.30;;;;;;;9.54;50.74;100057.19;10412152;28;20597;-72
2023/03/16 20:00:24;;;;;;;3.90;3.22;;;;;;;9.49;50.92;100062.84;10415578;28;20063;-70
2023/03/16 20:05:28;;;;;;;4.38;3.28;;;;;;;9.45;50.89;100057.91;10415730;28;20715;-69
2023/03/16 20:10:31;;;;;;;7.55;3.75;;;;;;;9.42;50.96;100061.66;10416739;28;20160;-69
2023/03/16 20:15:34;;;;;;;3.67;3.38;;;;;;;9.37;50.89;100050.53;10410275;28;20124;-70
2023/03/16 20:20:36;;;;;;;5.55;3.58;;;;;;;9.33;50.92;100049.09;10418859;28;20612;-70
2023/03/16 20:25:37;;;;;;;4.72;3.90;;;;;;;9.31;51.31;100040.41;10417759;28;20060;-71
2023/03/16 20:30:39;;;;;;;4.05;3.40;;;;;;;9.26;51.13;100042.56;10416278;28;20052;-69
2023/03/16 20:35:40;;;;;;;4.63;3.63;;;;;;;9.13;51.69;100027.59;10415581;28;20284;-71
2023/03/16 20:40:43;;;;;;;4.90;3.92;;;;;;;9.12;51.56;100039.16;10413548;28;20317;-69
2023/03/16 20:45:45;;;;;;;5.75;3.65;;;;;;;9.10;51.69;100019.03;10414438;28;20286;-69
2023/03/16 20:50:47;;;;;;;5.32;3.85;;;;;;;9.02;52.09;100022.25;10391839;28;20075;-70
2023/03/16 20:55:53;;;;;;;5.13;4.60;;;;;;;9.05;52.19;100032.63;10404474;28;20069;-70
2023/03/16 21:00:59;;;;;;;5.15;4.65;;;;;;;8.98;52.25;100028.78;10390973;28;20213;-71
2023/03/16 21:06:01;;;;;;;5.15;4.30;;;;;;;8.93;52.46;100029.16;10422396;28;20116;-69
2023/03/16 21:11:02;;;;;;;5.18;4.68;;;;;;;8.91;52.31;100020.44;10419772;28;20425;-71
2023/03/16 21:16:04;;;;;;;5.38;4.63;;;;;;;8.82;52.69;100002.56;10409350;28;20060;-71
2023/03/16 21:21:12;;;;;;;5.15;4.55;;;;;;;8.81;52.70;100007.06;10410060;28;20547;-69
2023/03/16 21:26:19;;;;;;;7.18;5.05;;;;;;;8.77;52.90;100005.59;10372627;28;20415;-71
2023/03/16 21:31:21;;;;;;;4.88;4.40;;;;;;;8.74;53.19;100016.44;10405402;28;20053;-69
2023/03/16 21:36:25;;;;;;;5.35;4.60;;;;;;;8.74;53.12;100011.13;10407887;28;20447;-70
2023/03/16 21:41:27;;;;;;;5.32;4.82;;;;;;;8.71;52.84;100006.06;10408062;28;20618;-69
2023/03/16 21:46:28;;;;;;;6.47;5.28;;;;;;;8.63;53.59;100013.75;10397847;28;20376;-69
2023/03/16 21:51:30;;;;;;;5.35;4.32;;;;;;;8.62;53.42;100002.31;10409288;28;20152;-70
2023/03/16 21:56:32;;;;;;;5.03;4.53;;;;;;;8.57;53.58;100000.94;10408879;28;20124;-68
2023/03/16 22:01:36;;;;;;;4.68;4.28;;;;;;;8.48;53.54;99994.53;10408939;28;20467;-69
2023/03/16 22:06:45;;;;;;;5.72;5.22;;;;;;;8.48;53.63;99987.44;10408249;28;20037;-68
2023/03/16 22:11:46;;;;;;;5.97;5.22;;;;;;;8.45;53.79;99969.09;10390283;28;20067;-67
2023/03/16 22:16:48;;;;;;;6.85;5.70;;;;;;;8.43;53.68;99978.94;10408060;28;20053;-65
2023/03/16 22:21:50;;;;;;;6.18;5.35;;;;;;;8.36;54.04;99975.09;10409367;28;20059;-68
2023/03/16 22:26:53;;;;;;;6.05;4.90;;;;;;;8.40;54.19;99981.81;10409296;28;20149;-69
2023/03/16 22:32:03;;;;;;;5.30;4.22;;;;;;;8.33;54.17;99972.63;10389405;28;20052;-67
2023/03/16 22:37:04;;;;;;;5.55;4.75;;;;;;;8.38;54.11;99964.34;10406984;28;20505;-66
2023/03/16 22:42:17;;;;;;;6.35;4.93;;;;;;;8.35;53.89;99962.78;10406316;28;20049;-67
2023/03/16 22:47:21;;;;;;;6.40;5.03;;;;;;;8.31;54.31;99940.94;10407938;28;20468;-68
2023/03/16 22:52:28;;;;;;;5.25;4.75;;;;;;;8.30;54.10;99956.97;10409007;28;20049;-67
2023/03/16 22:57:30;;;;;;;6.65;5.72;;;;;;;8.27;54.63;99954.53;10389662;28;21280;-67
2023/03/16 23:02:32;;;;;;;5.68;5.13;;;;;;;8.25;53.95;99943.22;10406734;28;20061;-65
2023/03/16 23:07:33;;;;;;;7.28;5.50;;;;;;;8.22;54.38;99952.25;10386256;28;20531;-65
2023/03/16 23:12:34;;;;;;;5.93;5.13;;;;;;;8.19;54.46;99947.16;10405799;28;20497;-70
2023/03/16 23:17:36;;;;;;;7.45;5.28;;;;;;;8.17;54.51;99942.94;10407692;28;20159;-68
2023/03/16 23:22:39;;;;;;;5.53;5.03;;;;;;;8.16;54.34;99933.31;10404508;28;20056;-70
2023/03/16 23:27:41;;;;;;;5.47;4.97;;;;;;;8.21;54.55;99937.31;10405472;28;20053;-69
2023/03/16 23:32:43;;;;;;;6.32;5.30;;;;;;;8.18;54.50;99934.03;10406295;28;20049;-68
2023/03/16 23:37:45;;;;;;;5.68;4.95;;;;;;;8.19;54.25;99941.88;10405971;28;20099;-64